Main page
METAR-TAF:

METAR-TAF

Airports :

Marsa Matruh International Airport

Marsa Matruh, Egypt

latitude: 31-20N, longitude: 027-13E, elevation: 25 m

Current weather observation

The report was made 52 minutes ago, at 16:00 UTC
Wind 9 kt from the Northwest
Temperature 28°C
Humidity 66%
Pressure 1014 hPa
Visibility 10 km or more
no clouds below 1500 m and no cumulonimbus

METAR: HEMM 221600Z 31009KT CAVOK 28/21 Q1014 NOSIG

Time: 18:52 (16:52 UTC)

Forecast

The report was made 5 hours and 52 minutes ago, at 11:00 UTC
Forecast valid from 22 at 12 UTC to 23 at 18 UTC
Wind 10 kt from the Northwest
Visibility 10 km or more
Few clouds at a height of 2000 ft

TAF: HEMM 221100Z 2212/2318 32010KT 9999 FEW020

Weather observations and forecasts of more than 4000 airports (METAR and TAF reports).

The available stations are represented by yellow and red dots on the map.

Hover mouse over dot to see the name of the station.

Then click to see weather observations and forecasts.

To change the map : click on the green buttons with a black cross to zoom in, on the green button with a dash to zoom out, or on the green arrows for adjacent maps.


METAR-TAF: